sensor_id;sensor_type;location;lat;lon;timestamp;P1;durP1;ratioP1;P2;durP2;ratioP2
55069;SDS011;40967;52.070;8.596;2023-06-14T00:01:01;1.03;;;0.60;;
55069;SDS011;40967;52.070;8.596;2023-06-14T00:03:28;1.30;;;0.70;;
55069;SDS011;40967;52.070;8.596;2023-06-14T00:05:53;0.90;;;0.68;;
55069;SDS011;40967;52.070;8.596;2023-06-14T00:08:19;1.50;;;0.80;;
55069;SDS011;40967;52.070;8.596;2023-06-14T00:10:46;1.42;;;0.70;;
55069;SDS011;40967;52.070;8.596;2023-06-14T00:13:11;1.40;;;0.75;;
55069;SDS011;40967;52.070;8.596;2023-06-14T00:15:37;1.33;;;0.60;;
55069;SDS011;40967;52.070;8.596;2023-06-14T00:18:03;1.92;;;0.90;;
55069;SDS011;40967;52.070;8.596;2023-06-14T00:20:30;1.58;;;0.75;;
55069;SDS011;40967;52.070;8.596;2023-06-14T00:22:58;1.58;;;0.90;;
55069;SDS011;40967;52.070;8.596;2023-06-14T00:25:24;1.45;;;0.80;;
55069;SDS011;40967;52.070;8.596;2023-06-14T00:27:52;1.52;;;0.80;;
55069;SDS011;40967;52.070;8.596;2023-06-14T00:30:19;1.70;;;0.88;;
55069;SDS011;40967;52.070;8.596;2023-06-14T00:32:44;1.08;;;0.70;;
55069;SDS011;40967;52.070;8.596;2023-06-14T00:35:11;1.23;;;0.70;;
55069;SDS011;40967;52.070;8.596;2023-06-14T00:37:37;1.30;;;0.68;;
55069;SDS011;40967;52.070;8.596;2023-06-14T00:40:03;1.08;;;0.60;;
55069;SDS011;40967;52.070;8.596;2023-06-14T00:42:29;0.90;;;0.52;;
55069;SDS011;40967;52.070;8.596;2023-06-14T00:44:57;1.20;;;0.60;;
55069;SDS011;40967;52.070;8.596;2023-06-14T00:47:23;1.33;;;0.80;;
55069;SDS011;40967;52.070;8.596;2023-06-14T00:49:53;0.70;;;0.60;;
55069;SDS011;40967;52.070;8.596;2023-06-14T00:52:19;1.20;;;0.60;;
55069;SDS011;40967;52.070;8.596;2023-06-14T00:54:45;1.00;;;0.50;;
55069;SDS011;40967;52.070;8.596;2023-06-14T00:57:11;0.65;;;0.40;;
55069;SDS011;40967;52.070;8.596;2023-06-14T00:59:38;0.90;;;0.50;;
55069;SDS011;40967;52.070;8.596;2023-06-14T01:02:07;0.50;;;0.40;;
55069;SDS011;40967;52.070;8.596;2023-06-14T01:04:33;0.60;;;0.40;;
55069;SDS011;40967;52.070;8.596;2023-06-14T01:07:00;0.80;;;0.40;;
55069;SDS011;40967;52.070;8.596;2023-06-14T01:09:54;0.35;;;0.30;;
55069;SDS011;40967;52.070;8.596;2023-06-14T01:12:47;0.60;;;0.40;;
55069;SDS011;40967;52.070;8.596;2023-06-14T01:15:30;0.70;;;0.40;;
55069;SDS011;40967;52.070;8.596;2023-06-14T01:17:57;0.60;;;0.40;;
55069;SDS011;40967;52.070;8.596;2023-06-14T01:20:28;0.75;;;0.40;;
55069;SDS011;40967;52.070;8.596;2023-06-14T01:22:55;0.43;;;0.40;;
55069;SDS011;40967;52.070;8.596;2023-06-14T01:25:21;0.70;;;0.38;;
55069;SDS011;40967;52.070;8.596;2023-06-14T01:27:51;0.65;;;0.40;;
55069;SDS011;40967;52.070;8.596;2023-06-14T01:30:19;0.65;;;0.40;;
55069;SDS011;40967;52.070;8.596;2023-06-14T01:32:49;0.50;;;0.30;;
55069;SDS011;40967;52.070;8.596;2023-06-14T01:35:15;0.63;;;0.35;;
55069;SDS011;40967;52.070;8.596;2023-06-14T01:37:41;0.50;;;0.32;;
55069;SDS011;40967;52.070;8.596;2023-06-14T01:40:09;0.75;;;0.40;;
55069;SDS011;40967;52.070;8.596;2023-06-14T01:42:36;0.50;;;0.40;;
55069;SDS011;40967;52.070;8.596;2023-06-14T01:45:06;0.57;;;0.30;;
55069;SDS011;40967;52.070;8.596;2023-06-14T01:47:32;0.52;;;0.38;;
55069;SDS011;40967;52.070;8.596;2023-06-14T01:49:59;0.82;;;0.40;;
55069;SDS011;40967;52.070;8.596;2023-06-14T01:52:27;0.90;;;0.50;;
55069;SDS011;40967;52.070;8.596;2023-06-14T01:54:56;0.70;;;0.50;;
55069;SDS011;40967;52.070;8.596;2023-06-14T01:57:23;0.82;;;0.50;;
55069;SDS011;40967;52.070;8.596;2023-06-14T01:59:50;0.70;;;0.43;;
55069;SDS011;40967;52.070;8.596;2023-06-14T02:02:15;0.50;;;0.40;;
55069;SDS011;40967;52.070;8.596;2023-06-14T02:04:44;0.50;;;0.30;;
55069;SDS011;40967;52.070;8.596;2023-06-14T02:07:11;0.57;;;0.40;;
55069;SDS011;40967;52.070;8.596;2023-06-14T02:09:40;0.73;;;0.30;;
55069;SDS011;40967;52.070;8.596;2023-06-14T02:12:06;0.70;;;0.40;;
55069;SDS011;40967;52.070;8.596;2023-06-14T02:14:34;1.07;;;0.47;;
55069;SDS011;40967;52.070;8.596;2023-06-14T02:17:00;0.87;;;0.50;;
55069;SDS011;40967;52.070;8.596;2023-06-14T02:19:26;0.80;;;0.40;;
55069;SDS011;40967;52.070;8.596;2023-06-14T02:21:51;0.57;;;0.40;;
55069;SDS011;40967;52.070;8.596;2023-06-14T02:24:16;0.83;;;0.40;;
55069;SDS011;40967;52.070;8.596;2023-06-14T02:26:42;0.80;;;0.50;;
55069;SDS011;40967;52.070;8.596;2023-06-14T02:29:07;1.00;;;0.50;;
55069;SDS011;40967;52.070;8.596;2023-06-14T02:31:37;0.70;;;0.43;;
55069;SDS011;40967;52.070;8.596;2023-06-14T02:34:03;0.60;;;0.40;;
55069;SDS011;40967;52.070;8.596;2023-06-14T02:36:29;0.65;;;0.50;;
55069;SDS011;40967;52.070;8.596;2023-06-14T02:38:55;0.65;;;0.50;;
55069;SDS011;40967;52.070;8.596;2023-06-14T02:41:22;0.70;;;0.40;;
55069;SDS011;40967;52.070;8.596;2023-06-14T02:43:48;0.60;;;0.40;;
55069;SDS011;40967;52.070;8.596;2023-06-14T02:46:13;1.00;;;0.60;;
55069;SDS011;40967;52.070;8.596;2023-06-14T02:48:39;0.88;;;0.40;;
55069;SDS011;40967;52.070;8.596;2023-06-14T02:51:05;1.43;;;0.70;;
55069;SDS011;40967;52.070;8.596;2023-06-14T02:53:30;0.83;;;0.40;;
55069;SDS011;40967;52.070;8.596;2023-06-14T02:55:56;1.70;;;0.57;;
55069;SDS011;40967;52.070;8.596;2023-06-14T02:58:21;1.03;;;0.57;;
55069;SDS011;40967;52.070;8.596;2023-06-14T03:00:49;0.93;;;0.50;;
55069;SDS011;40967;52.070;8.596;2023-06-14T03:03:17;0.60;;;0.50;;
55069;SDS011;40967;52.070;8.596;2023-06-14T03:05:43;0.57;;;0.40;;
55069;SDS011;40967;52.070;8.596;2023-06-14T03:08:14;0.80;;;0.52;;
55069;SDS011;40967;52.070;8.596;2023-06-14T03:10:47;0.65;;;0.40;;
55069;SDS011;40967;52.070;8.596;2023-06-14T03:13:13;0.77;;;0.50;;
55069;SDS011;40967;52.070;8.596;2023-06-14T03:15:40;0.63;;;0.40;;
55069;SDS011;40967;52.070;8.596;2023-06-14T03:18:09;0.47;;;0.40;;
55069;SDS011;40967;52.070;8.596;2023-06-14T03:20:35;0.70;;;0.40;;
55069;SDS011;40967;52.070;8.596;2023-06-14T03:23:01;0.47;;;0.40;;
55069;SDS011;40967;52.070;8.596;2023-06-14T03:25:28;0.40;;;0.30;;
55069;SDS011;40967;52.070;8.596;2023-06-14T03:28:00;0.75;;;0.40;;
55069;SDS011;40967;52.070;8.596;2023-06-14T03:30:26;0.40;;;0.30;;
55069;SDS011;40967;52.070;8.596;2023-06-14T03:32:52;0.97;;;0.50;;
55069;SDS011;40967;52.070;8.596;2023-06-14T03:35:18;0.73;;;0.45;;
55069;SDS011;40967;52.070;8.596;2023-06-14T03:37:44;0.93;;;0.60;;
55069;SDS011;40967;52.070;8.596;2023-06-14T03:40:10;0.93;;;0.50;;
55069;SDS011;40967;52.070;8.596;2023-06-14T03:42:37;0.93;;;0.50;;
55069;SDS011;40967;52.070;8.596;2023-06-14T03:45:03;1.15;;;0.60;;
55069;SDS011;40967;52.070;8.596;2023-06-14T03:47:29;0.95;;;0.50;;
55069;SDS011;40967;52.070;8.596;2023-06-14T03:49:54;0.70;;;0.50;;
55069;SDS011;40967;52.070;8.596;2023-06-14T03:52:20;1.00;;;0.43;;
55069;SDS011;40967;52.070;8.596;2023-06-14T03:54:47;0.77;;;0.47;;
55069;SDS011;40967;52.070;8.596;2023-06-14T03:57:12;0.65;;;0.40;;
55069;SDS011;40967;52.070;8.596;2023-06-14T03:59:38;1.30;;;0.60;;
55069;SDS011;40967;52.070;8.596;2023-06-14T04:02:03;1.83;;;0.50;;
55069;SDS011;40967;52.070;8.596;2023-06-14T04:04:29;1.00;;;0.50;;
55069;SDS011;40967;52.070;8.596;2023-06-14T04:06:56;0.82;;;0.50;;
55069;SDS011;40967;52.070;8.596;2023-06-14T04:09:23;1.30;;;0.60;;
55069;SDS011;40967;52.070;8.596;2023-06-14T04:11:50;0.93;;;0.60;;
55069;SDS011;40967;52.070;8.596;2023-06-14T04:14:23;1.20;;;0.68;;
55069;SDS011;40967;52.070;8.596;2023-06-14T04:16:48;1.58;;;0.88;;
55069;SDS011;40967;52.070;8.596;2023-06-14T04:19:14;1.60;;;0.85;;
55069;SDS011;40967;52.070;8.596;2023-06-14T04:21:43;2.17;;;0.80;;
55069;SDS011;40967;52.070;8.596;2023-06-14T04:24:09;1.73;;;0.80;;
55069;SDS011;40967;52.070;8.596;2023-06-14T04:26:41;1.42;;;0.80;;
55069;SDS011;40967;52.070;8.596;2023-06-14T04:29:12;1.42;;;0.70;;
55069;SDS011;40967;52.070;8.596;2023-06-14T04:31:41;1.25;;;0.70;;
55069;SDS011;40967;52.070;8.596;2023-06-14T04:34:10;1.50;;;0.83;;
55069;SDS011;40967;52.070;8.596;2023-06-14T04:36:40;1.30;;;0.80;;
55069;SDS011;40967;52.070;8.596;2023-06-14T04:39:17;1.23;;;0.60;;
55069;SDS011;40967;52.070;8.596;2023-06-14T04:41:43;1.65;;;0.70;;
55069;SDS011;40967;52.070;8.596;2023-06-14T04:44:09;1.48;;;0.88;;
55069;SDS011;40967;52.070;8.596;2023-06-14T04:46:35;1.52;;;0.73;;
55069;SDS011;40967;52.070;8.596;2023-06-14T04:49:09;1.27;;;0.80;;
55069;SDS011;40967;52.070;8.596;2023-06-14T04:51:35;1.20;;;0.60;;
55069;SDS011;40967;52.070;8.596;2023-06-14T04:54:05;1.30;;;0.77;;
55069;SDS011;40967;52.070;8.596;2023-06-14T04:56:35;1.70;;;0.70;;
55069;SDS011;40967;52.070;8.596;2023-06-14T04:59:02;2.17;;;0.73;;
55069;SDS011;40967;52.070;8.596;2023-06-14T05:01:29;1.13;;;0.63;;
55069;SDS011;40967;52.070;8.596;2023-06-14T05:03:56;1.38;;;0.80;;
55069;SDS011;40967;52.070;8.596;2023-06-14T05:06:21;1.42;;;0.80;;
55069;SDS011;40967;52.070;8.596;2023-06-14T05:08:47;1.20;;;0.70;;
55069;SDS011;40967;52.070;8.596;2023-06-14T05:11:12;1.30;;;0.80;;
55069;SDS011;40967;52.070;8.596;2023-06-14T05:13:38;0.98;;;0.50;;
55069;SDS011;40967;52.070;8.596;2023-06-14T05:16:05;1.10;;;0.60;;
55069;SDS011;40967;52.070;8.596;2023-06-14T05:18:31;1.20;;;0.68;;
55069;SDS011;40967;52.070;8.596;2023-06-14T05:20:59;0.93;;;0.60;;
55069;SDS011;40967;52.070;8.596;2023-06-14T05:23:24;0.90;;;0.60;;
55069;SDS011;40967;52.070;8.596;2023-06-14T05:25:50;0.93;;;0.60;;
55069;SDS011;40967;52.070;8.596;2023-06-14T05:28:15;1.03;;;0.60;;
55069;SDS011;40967;52.070;8.596;2023-06-14T05:30:41;1.83;;;0.63;;
55069;SDS011;40967;52.070;8.596;2023-06-14T05:33:07;1.08;;;0.52;;
55069;SDS011;40967;52.070;8.596;2023-06-14T05:35:32;0.90;;;0.60;;
55069;SDS011;40967;52.070;8.596;2023-06-14T05:37:58;0.90;;;0.60;;
55069;SDS011;40967;52.070;8.596;2023-06-14T05:40:23;1.27;;;0.60;;
55069;SDS011;40967;52.070;8.596;2023-06-14T05:42:48;1.07;;;0.67;;
55069;SDS011;40967;52.070;8.596;2023-06-14T05:45:14;1.33;;;0.60;;
55069;SDS011;40967;52.070;8.596;2023-06-14T05:47:41;1.08;;;0.70;;
55069;SDS011;40967;52.070;8.596;2023-06-14T05:50:06;1.20;;;0.65;;
55069;SDS011;40967;52.070;8.596;2023-06-14T05:52:33;1.30;;;0.73;;
55069;SDS011;40967;52.070;8.596;2023-06-14T05:54:59;1.60;;;0.90;;
55069;SDS011;40967;52.070;8.596;2023-06-14T05:57:24;1.80;;;0.90;;
55069;SDS011;40967;52.070;8.596;2023-06-14T05:59:50;1.42;;;0.70;;
55069;SDS011;40967;52.070;8.596;2023-06-14T06:02:16;2.53;;;0.93;;
55069;SDS011;40967;52.070;8.596;2023-06-14T06:04:41;1.90;;;0.90;;
55069;SDS011;40967;52.070;8.596;2023-06-14T06:07:07;2.00;;;0.90;;
55069;SDS011;40967;52.070;8.596;2023-06-14T06:09:32;2.27;;;1.00;;
55069;SDS011;40967;52.070;8.596;2023-06-14T06:11:58;2.03;;;0.95;;
55069;SDS011;40967;52.070;8.596;2023-06-14T06:14:23;2.97;;;1.10;;
55069;SDS011;40967;52.070;8.596;2023-06-14T06:16:49;2.97;;;1.33;;
55069;SDS011;40967;52.070;8.596;2023-06-14T06:19:14;1.90;;;1.10;;
55069;SDS011;40967;52.070;8.596;2023-06-14T06:21:40;2.77;;;1.00;;
55069;SDS011;40967;52.070;8.596;2023-06-14T06:24:05;2.65;;;1.00;;
55069;SDS011;40967;52.070;8.596;2023-06-14T06:26:31;1.60;;;0.90;;
55069;SDS011;40967;52.070;8.596;2023-06-14T06:28:57;2.08;;;1.02;;
55069;SDS011;40967;52.070;8.596;2023-06-14T06:31:23;2.92;;;0.90;;
55069;SDS011;40967;52.070;8.596;2023-06-14T06:33:48;1.80;;;0.87;;
55069;SDS011;40967;52.070;8.596;2023-06-14T06:36:14;2.08;;;0.85;;
55069;SDS011;40967;52.070;8.596;2023-06-14T06:38:40;1.33;;;0.73;;
55069;SDS011;40967;52.070;8.596;2023-06-14T06:41:05;1.35;;;0.75;;
55069;SDS011;40967;52.070;8.596;2023-06-14T06:43:31;1.70;;;0.53;;
55069;SDS011;40967;52.070;8.596;2023-06-14T06:45:56;1.27;;;0.70;;
55069;SDS011;40967;52.070;8.596;2023-06-14T06:48:21;1.20;;;0.70;;
55069;SDS011;40967;52.070;8.596;2023-06-14T06:50:47;1.60;;;0.70;;
55069;SDS011;40967;52.070;8.596;2023-06-14T06:53:12;1.23;;;0.60;;
55069;SDS011;40967;52.070;8.596;2023-06-14T06:55:38;1.50;;;0.50;;
55069;SDS011;40967;52.070;8.596;2023-06-14T06:58:03;0.73;;;0.53;;
55069;SDS011;40967;52.070;8.596;2023-06-14T07:00:30;0.80;;;0.50;;
55069;SDS011;40967;52.070;8.596;2023-06-14T07:02:55;0.80;;;0.60;;
55069;SDS011;40967;52.070;8.596;2023-06-14T07:05:22;1.10;;;0.68;;
55069;SDS011;40967;52.070;8.596;2023-06-14T07:07:48;0.60;;;0.50;;
55069;SDS011;40967;52.070;8.596;2023-06-14T07:10:13;1.27;;;0.60;;
55069;SDS011;40967;52.070;8.596;2023-06-14T07:12:38;1.17;;;0.60;;
55069;SDS011;40967;52.070;8.596;2023-06-14T07:15:07;1.47;;;0.70;;
55069;SDS011;40967;52.070;8.596;2023-06-14T07:17:33;1.60;;;0.82;;
55069;SDS011;40967;52.070;8.596;2023-06-14T07:19:59;1.37;;;0.80;;
55069;SDS011;40967;52.070;8.596;2023-06-14T07:22:25;0.75;;;0.52;;
55069;SDS011;40967;52.070;8.596;2023-06-14T07:24:51;2.07;;;0.70;;
55069;SDS011;40967;52.070;8.596;2023-06-14T07:27:16;1.70;;;0.67;;
55069;SDS011;40967;52.070;8.596;2023-06-14T07:29:42;1.10;;;0.60;;
55069;SDS011;40967;52.070;8.596;2023-06-14T07:32:07;2.23;;;0.80;;
55069;SDS011;40967;52.070;8.596;2023-06-14T07:34:32;1.10;;;0.70;;
55069;SDS011;40967;52.070;8.596;2023-06-14T07:36:58;1.30;;;0.70;;
55069;SDS011;40967;52.070;8.596;2023-06-14T07:39:23;2.23;;;0.80;;
55069;SDS011;40967;52.070;8.596;2023-06-14T07:41:48;2.00;;;0.70;;
55069;SDS011;40967;52.070;8.596;2023-06-14T07:44:14;1.30;;;0.80;;
55069;SDS011;40967;52.070;8.596;2023-06-14T07:46:40;1.65;;;0.70;;
55069;SDS011;40967;52.070;8.596;2023-06-14T07:49:06;1.50;;;0.70;;
55069;SDS011;40967;52.070;8.596;2023-06-14T07:51:32;2.28;;;0.80;;
55069;SDS011;40967;52.070;8.596;2023-06-14T07:53:59;1.40;;;0.70;;
55069;SDS011;40967;52.070;8.596;2023-06-14T07:56:26;1.10;;;0.60;;
55069;SDS011;40967;52.070;8.596;2023-06-14T07:58:51;1.03;;;0.67;;
55069;SDS011;40967;52.070;8.596;2023-06-14T08:01:17;1.40;;;0.80;;
55069;SDS011;40967;52.070;8.596;2023-06-14T08:03:44;1.10;;;0.60;;
55069;SDS011;40967;52.070;8.596;2023-06-14T08:06:10;1.90;;;0.60;;
55069;SDS011;40967;52.070;8.596;2023-06-14T08:08:35;1.73;;;0.80;;
55069;SDS011;40967;52.070;8.596;2023-06-14T08:11:00;1.00;;;0.50;;
55069;SDS011;40967;52.070;8.596;2023-06-14T08:13:26;1.10;;;0.70;;
55069;SDS011;40967;52.070;8.596;2023-06-14T08:15:51;1.33;;;0.70;;
55069;SDS011;40967;52.070;8.596;2023-06-14T08:18:16;2.38;;;0.75;;
55069;SDS011;40967;52.070;8.596;2023-06-14T08:20:42;0.93;;;0.70;;
55069;SDS011;40967;52.070;8.596;2023-06-14T08:23:10;1.00;;;0.70;;
55069;SDS011;40967;52.070;8.596;2023-06-14T08:25:36;1.20;;;0.80;;
55069;SDS011;40967;52.070;8.596;2023-06-14T08:28:01;1.30;;;0.70;;
55069;SDS011;40967;52.070;8.596;2023-06-14T08:30:27;1.33;;;0.70;;
55069;SDS011;40967;52.070;8.596;2023-06-14T08:32:52;1.00;;;0.60;;
55069;SDS011;40967;52.070;8.596;2023-06-14T08:35:20;1.30;;;0.60;;
55069;SDS011;40967;52.070;8.596;2023-06-14T08:37:46;2.17;;;0.90;;
55069;SDS011;40967;52.070;8.596;2023-06-14T08:42:44;1.80;;;0.75;;
55069;SDS011;40967;52.070;8.596;2023-06-14T08:45:12;1.60;;;0.82;;
55069;SDS011;40967;52.070;8.596;2023-06-14T08:47:41;1.33;;;0.80;;
55069;SDS011;40967;52.070;8.596;2023-06-14T08:50:06;1.52;;;0.80;;
55069;SDS011;40967;52.070;8.596;2023-06-14T08:52:33;1.73;;;0.85;;
55069;SDS011;40967;52.070;8.596;2023-06-14T08:55:10;1.42;;;0.60;;
55069;SDS011;40967;52.070;8.596;2023-06-14T08:57:36;1.10;;;0.63;;
55069;SDS011;40967;52.070;8.596;2023-06-14T09:00:02;0.88;;;0.65;;
55069;SDS011;40967;52.070;8.596;2023-06-14T09:02:38;1.80;;;0.80;;
55069;SDS011;40967;52.070;8.596;2023-06-14T09:05:08;2.10;;;0.70;;
55069;SDS011;40967;52.070;8.596;2023-06-14T09:07:38;0.82;;;0.50;;
55069;SDS011;40967;52.070;8.596;2023-06-14T09:10:13;1.17;;;0.70;;
55069;SDS011;40967;52.070;8.596;2023-06-14T09:12:40;1.33;;;0.70;;
55069;SDS011;40967;52.070;8.596;2023-06-14T09:15:06;1.00;;;0.60;;
55069;SDS011;40967;52.070;8.596;2023-06-14T09:17:34;1.58;;;0.80;;
55069;SDS011;40967;52.070;8.596;2023-06-14T09:20:03;1.20;;;0.60;;
55069;SDS011;40967;52.070;8.596;2023-06-14T09:22:43;0.97;;;0.60;;
55069;SDS011;40967;52.070;8.596;2023-06-14T09:25:09;1.20;;;0.60;;
55069;SDS011;40967;52.070;8.596;2023-06-14T09:27:35;0.93;;;0.60;;
55069;SDS011;40967;52.070;8.596;2023-06-14T09:30:02;1.63;;;0.73;;
55069;SDS011;40967;52.070;8.596;2023-06-14T09:32:28;1.73;;;0.52;;
55069;SDS011;40967;52.070;8.596;2023-06-14T09:34:57;1.35;;;0.70;;
55069;SDS011;40967;52.070;8.596;2023-06-14T09:37:26;1.10;;;0.70;;
55069;SDS011;40967;52.070;8.596;2023-06-14T09:39:53;1.00;;;0.70;;
55069;SDS011;40967;52.070;8.596;2023-06-14T09:42:19;2.17;;;0.70;;
55069;SDS011;40967;52.070;8.596;2023-06-14T09:44:48;1.00;;;0.60;;
55069;SDS011;40967;52.070;8.596;2023-06-14T09:47:17;1.00;;;0.70;;
55069;SDS011;40967;52.070;8.596;2023-06-14T09:49:43;1.10;;;0.70;;
55069;SDS011;40967;52.070;8.596;2023-06-14T09:52:10;0.65;;;0.52;;
55069;SDS011;40967;52.070;8.596;2023-06-14T09:54:40;2.25;;;0.60;;
55069;SDS011;40967;52.070;8.596;2023-06-14T09:57:09;1.52;;;0.70;;
55069;SDS011;40967;52.070;8.596;2023-06-14T09:59:44;0.88;;;0.60;;
55069;SDS011;40967;52.070;8.596;2023-06-14T10:08:08;1.33;;;0.70;;
55069;SDS011;40967;52.070;8.596;2023-06-14T10:10:32;1.00;;;0.70;;
55069;SDS011;40967;52.070;8.596;2023-06-14T10:12:58;1.05;;;0.60;;
55069;SDS011;40967;52.070;8.596;2023-06-14T10:15:32;1.40;;;0.80;;
55069;SDS011;40967;52.070;8.596;2023-06-14T10:18:11;1.10;;;0.60;;
55069;SDS011;40967;52.070;8.596;2023-06-14T10:23:33;1.08;;;0.68;;
55069;SDS011;40967;52.070;8.596;2023-06-14T10:26:05;1.90;;;0.65;;
55069;SDS011;40967;52.070;8.596;2023-06-14T10:28:31;1.20;;;0.60;;
55069;SDS011;40967;52.070;8.596;2023-06-14T10:33:29;1.30;;;0.70;;
55069;SDS011;40967;52.070;8.596;2023-06-14T10:38:34;0.90;;;0.50;;
55069;SDS011;40967;52.070;8.596;2023-06-14T10:41:01;1.20;;;0.60;;
55069;SDS011;40967;52.070;8.596;2023-06-14T10:43:28;1.10;;;0.60;;
55069;SDS011;40967;52.070;8.596;2023-06-14T10:48:57;1.33;;;0.77;;
55069;SDS011;40967;52.070;8.596;2023-06-14T10:51:24;0.95;;;0.63;;
55069;SDS011;40967;52.070;8.596;2023-06-14T10:53:49;1.23;;;0.80;;
55069;SDS011;40967;52.070;8.596;2023-06-14T10:56:29;1.10;;;0.60;;
55069;SDS011;40967;52.070;8.596;2023-06-14T10:58:56;1.50;;;0.80;;
55069;SDS011;40967;52.070;8.596;2023-06-14T11:01:29;1.20;;;0.70;;
55069;SDS011;40967;52.070;8.596;2023-06-14T11:04:06;1.20;;;0.80;;
55069;SDS011;40967;52.070;8.596;2023-06-14T11:06:46;0.90;;;0.63;;
55069;SDS011;40967;52.070;8.596;2023-06-14T11:12:29;1.00;;;0.68;;
55069;SDS011;40967;52.070;8.596;2023-06-14T11:15:00;2.00;;;0.73;;
55069;SDS011;40967;52.070;8.596;2023-06-14T11:17:26;1.33;;;0.90;;
55069;SDS011;40967;52.070;8.596;2023-06-14T11:20:06;0.90;;;0.52;;
55069;SDS011;40967;52.070;8.596;2023-06-14T11:22:38;0.80;;;0.70;;
55069;SDS011;40967;52.070;8.596;2023-06-14T11:25:04;1.05;;;0.75;;
55069;SDS011;40967;52.070;8.596;2023-06-14T11:27:33;2.00;;;0.90;;
55069;SDS011;40967;52.070;8.596;2023-06-14T11:29:59;0.82;;;0.70;;
55069;SDS011;40967;52.070;8.596;2023-06-14T11:32:24;0.90;;;0.60;;
55069;SDS011;40967;52.070;8.596;2023-06-14T11:34:49;0.97;;;0.73;;
55069;SDS011;40967;52.070;8.596;2023-06-14T11:37:16;0.85;;;0.60;;
55069;SDS011;40967;52.070;8.596;2023-06-14T11:39:45;1.45;;;0.82;;
55069;SDS011;40967;52.070;8.596;2023-06-14T11:42:16;1.23;;;0.70;;
55069;SDS011;40967;52.070;8.596;2023-06-14T11:44:41;0.90;;;0.60;;
55069;SDS011;40967;52.070;8.596;2023-06-14T11:47:07;1.70;;;0.70;;
55069;SDS011;40967;52.070;8.596;2023-06-14T11:49:36;1.60;;;0.93;;
55069;SDS011;40967;52.070;8.596;2023-06-14T11:52:01;0.90;;;0.67;;
55069;SDS011;40967;52.070;8.596;2023-06-14T11:54:27;1.03;;;0.70;;
55069;SDS011;40967;52.070;8.596;2023-06-14T11:56:53;0.77;;;0.63;;
55069;SDS011;40967;52.070;8.596;2023-06-14T11:59:18;1.17;;;0.77;;
55069;SDS011;40967;52.070;8.596;2023-06-14T12:01:45;0.80;;;0.70;;
55069;SDS011;40967;52.070;8.596;2023-06-14T12:04:12;1.23;;;0.70;;
55069;SDS011;40967;52.070;8.596;2023-06-14T12:06:37;0.90;;;0.60;;
55069;SDS011;40967;52.070;8.596;2023-06-14T12:09:04;0.93;;;0.70;;
55069;SDS011;40967;52.070;8.596;2023-06-14T12:11:33;0.70;;;0.60;;
55069;SDS011;40967;52.070;8.596;2023-06-14T12:14:00;1.17;;;0.80;;
55069;SDS011;40967;52.070;8.596;2023-06-14T12:16:33;0.98;;;0.65;;
55069;SDS011;40967;52.070;8.596;2023-06-14T12:19:13;0.90;;;0.60;;
55069;SDS011;40967;52.070;8.596;2023-06-14T12:21:39;0.80;;;0.60;;
55069;SDS011;40967;52.070;8.596;2023-06-14T12:24:06;1.50;;;0.80;;
55069;SDS011;40967;52.070;8.596;2023-06-14T12:26:32;1.30;;;0.80;;
55069;SDS011;40967;52.070;8.596;2023-06-14T12:28:58;0.88;;;0.70;;
55069;SDS011;40967;52.070;8.596;2023-06-14T12:31:24;0.90;;;0.70;;
55069;SDS011;40967;52.070;8.596;2023-06-14T12:33:51;1.88;;;0.77;;
55069;SDS011;40967;52.070;8.596;2023-06-14T12:36:17;0.85;;;0.70;;
55069;SDS011;40967;52.070;8.596;2023-06-14T12:38:42;1.00;;;0.80;;
55069;SDS011;40967;52.070;8.596;2023-06-14T12:41:08;1.23;;;0.70;;
55069;SDS011;40967;52.070;8.596;2023-06-14T12:43:33;1.27;;;0.70;;
55069;SDS011;40967;52.070;8.596;2023-06-14T12:45:59;1.63;;;0.80;;
55069;SDS011;40967;52.070;8.596;2023-06-14T12:48:26;0.82;;;0.60;;
55069;SDS011;40967;52.070;8.596;2023-06-14T12:50:56;1.00;;;0.65;;
55069;SDS011;40967;52.070;8.596;2023-06-14T12:53:22;1.70;;;0.80;;
55069;SDS011;40967;52.070;8.596;2023-06-14T12:55:48;1.27;;;0.70;;
55069;SDS011;40967;52.070;8.596;2023-06-14T12:58:13;1.33;;;0.50;;
55069;SDS011;40967;52.070;8.596;2023-06-14T13:00:39;0.88;;;0.60;;
55069;SDS011;40967;52.070;8.596;2023-06-14T13:03:05;1.45;;;0.60;;
55069;SDS011;40967;52.070;8.596;2023-06-14T13:05:30;0.77;;;0.60;;
55069;SDS011;40967;52.070;8.596;2023-06-14T13:07:58;1.23;;;0.82;;
55069;SDS011;40967;52.070;8.596;2023-06-14T13:10:24;0.80;;;0.60;;
55069;SDS011;40967;52.070;8.596;2023-06-14T13:12:50;1.40;;;0.70;;
55069;SDS011;40967;52.070;8.596;2023-06-14T13:15:16;1.13;;;0.70;;
55069;SDS011;40967;52.070;8.596;2023-06-14T13:17:41;1.07;;;0.70;;
55069;SDS011;40967;52.070;8.596;2023-06-14T13:20:09;3.05;;;0.82;;
55069;SDS011;40967;52.070;8.596;2023-06-14T13:22:35;1.50;;;0.80;;
55069;SDS011;40967;52.070;8.596;2023-06-14T13:25:00;1.45;;;0.70;;
55069;SDS011;40967;52.070;8.596;2023-06-14T13:27:26;1.50;;;0.80;;
55069;SDS011;40967;52.070;8.596;2023-06-14T13:29:55;1.43;;;0.70;;
55069;SDS011;40967;52.070;8.596;2023-06-14T13:32:21;0.90;;;0.70;;
55069;SDS011;40967;52.070;8.596;2023-06-14T13:34:47;0.77;;;0.60;;
55069;SDS011;40967;52.070;8.596;2023-06-14T13:37:13;1.88;;;0.80;;
55069;SDS011;40967;52.070;8.596;2023-06-14T13:39:38;1.77;;;0.83;;
55069;SDS011;40967;52.070;8.596;2023-06-14T13:42:04;1.40;;;0.70;;
55069;SDS011;40967;52.070;8.596;2023-06-14T13:44:30;1.10;;;0.63;;
55069;SDS011;40967;52.070;8.596;2023-06-14T13:46:55;0.83;;;0.53;;
55069;SDS011;40967;52.070;8.596;2023-06-14T13:49:21;0.90;;;0.60;;
55069;SDS011;40967;52.070;8.596;2023-06-14T13:51:47;0.98;;;0.60;;
55069;SDS011;40967;52.070;8.596;2023-06-14T13:54:12;1.33;;;0.80;;
55069;SDS011;40967;52.070;8.596;2023-06-14T13:56:39;1.05;;;0.80;;
55069;SDS011;40967;52.070;8.596;2023-06-14T13:59:04;1.00;;;0.70;;
55069;SDS011;40967;52.070;8.596;2023-06-14T14:01:30;1.30;;;0.60;;
55069;SDS011;40967;52.070;8.596;2023-06-14T14:03:55;1.30;;;0.83;;
55069;SDS011;40967;52.070;8.596;2023-06-14T14:06:21;1.80;;;0.90;;
55069;SDS011;40967;52.070;8.596;2023-06-14T14:08:47;1.15;;;0.80;;
55069;SDS011;40967;52.070;8.596;2023-06-14T14:11:12;1.30;;;0.70;;
55069;SDS011;40967;52.070;8.596;2023-06-14T14:13:37;0.90;;;0.70;;
55069;SDS011;40967;52.070;8.596;2023-06-14T14:16:04;1.20;;;0.80;;
55069;SDS011;40967;52.070;8.596;2023-06-14T14:18:31;1.30;;;0.80;;
55069;SDS011;40967;52.070;8.596;2023-06-14T14:20:57;1.00;;;0.70;;
55069;SDS011;40967;52.070;8.596;2023-06-14T14:23:23;1.30;;;0.80;;
55069;SDS011;40967;52.070;8.596;2023-06-14T14:25:50;1.30;;;0.73;;
55069;SDS011;40967;52.070;8.596;2023-06-14T14:28:15;0.80;;;0.60;;
55069;SDS011;40967;52.070;8.596;2023-06-14T14:30:43;1.10;;;0.70;;
55069;SDS011;40967;52.070;8.596;2023-06-14T14:33:09;0.90;;;0.50;;
55069;SDS011;40967;52.070;8.596;2023-06-14T14:35:36;1.80;;;0.73;;
55069;SDS011;40967;52.070;8.596;2023-06-14T14:38:01;0.90;;;0.70;;
55069;SDS011;40967;52.070;8.596;2023-06-14T14:40:28;2.53;;;1.00;;
55069;SDS011;40967;52.070;8.596;2023-06-14T14:42:53;1.37;;;1.00;;
55069;SDS011;40967;52.070;8.596;2023-06-14T14:45:19;1.77;;;0.80;;
55069;SDS011;40967;52.070;8.596;2023-06-14T14:47:44;2.60;;;1.10;;
55069;SDS011;40967;52.070;8.596;2023-06-14T14:50:10;2.35;;;1.08;;
55069;SDS011;40967;52.070;8.596;2023-06-14T14:52:35;1.55;;;1.00;;
55069;SDS011;40967;52.070;8.596;2023-06-14T14:55:01;1.20;;;0.80;;
55069;SDS011;40967;52.070;8.596;2023-06-14T14:57:30;1.17;;;0.90;;
55069;SDS011;40967;52.070;8.596;2023-06-14T14:59:56;1.25;;;0.80;;
55069;SDS011;40967;52.070;8.596;2023-06-14T15:02:21;1.40;;;0.90;;
55069;SDS011;40967;52.070;8.596;2023-06-14T15:04:48;1.35;;;0.90;;
55069;SDS011;40967;52.070;8.596;2023-06-14T15:07:14;1.87;;;0.80;;
55069;SDS011;40967;52.070;8.596;2023-06-14T15:09:40;1.60;;;1.00;;